sensor_id;sensor_type;location;lat;lon;timestamp;P1;durP1;ratioP1;P2;durP2;ratioP2
73678;SDS011;61978;52.742;16.962;2022-09-09T00:14:54;10.98;;;9.68;;
73678;SDS011;61978;52.742;16.962;2022-09-09T00:32:18;16.40;;;11.20;;
73678;SDS011;61978;52.742;16.962;2022-09-09T01:12:53;10.03;;;8.28;;
73678;SDS011;61978;52.742;16.962;2022-09-09T01:16:08;11.22;;;8.13;;
73678;SDS011;61978;52.742;16.962;2022-09-09T01:18:56;10.43;;;9.30;;
73678;SDS011;61978;52.742;16.962;2022-09-09T01:21:50;11.68;;;10.48;;
73678;SDS011;61978;52.742;16.962;2022-09-09T01:24:17;12.20;;;10.78;;
73678;SDS011;61978;52.742;16.962;2022-09-09T01:27:41;13.03;;;11.65;;
73678;SDS011;61978;52.742;16.962;2022-09-09T01:29:53;11.65;;;10.00;;
73678;SDS011;61978;52.742;16.962;2022-09-09T01:32:45;11.18;;;9.53;;
73678;SDS011;61978;52.742;16.962;2022-09-09T01:39:24;14.58;;;9.23;;
73678;SDS011;61978;52.742;16.962;2022-09-09T01:44:31;10.00;;;9.00;;
73678;SDS011;61978;52.742;16.962;2022-09-09T02:02:55;11.75;;;8.48;;
73678;SDS011;61978;52.742;16.962;2022-09-09T02:11:15;9.53;;;8.58;;
73678;SDS011;61978;52.742;16.962;2022-09-09T02:14:25;11.80;;;9.98;;
73678;SDS011;61978;52.742;16.962;2022-09-09T02:17:11;14.13;;;10.68;;
73678;SDS011;61978;52.742;16.962;2022-09-09T02:19:49;14.63;;;12.40;;
73678;SDS011;61978;52.742;16.962;2022-09-09T02:22:26;12.43;;;11.15;;
73678;SDS011;61978;52.742;16.962;2022-09-09T02:25:07;13.43;;;11.28;;
73678;SDS011;61978;52.742;16.962;2022-09-09T02:30:38;12.65;;;9.75;;
73678;SDS011;61978;52.742;16.962;2022-09-09T02:33:09;9.50;;;8.50;;
73678;SDS011;61978;52.742;16.962;2022-09-09T02:41:56;10.63;;;8.95;;
73678;SDS011;61978;52.742;16.962;2022-09-09T02:50:39;12.18;;;8.78;;
73678;SDS011;61978;52.742;16.962;2022-09-09T03:03:15;14.15;;;10.48;;
73678;SDS011;61978;52.742;16.962;2022-09-09T03:11:56;14.00;;;11.85;;
73678;SDS011;61978;52.742;16.962;2022-09-09T03:15:04;18.52;;;12.60;;
73678;SDS011;61978;52.742;16.962;2022-09-09T03:21:29;21.02;;;16.73;;
73678;SDS011;61978;52.742;16.962;2022-09-09T03:38:02;33.60;;;24.27;;
73678;SDS011;61978;52.742;16.962;2022-09-09T03:46:26;29.80;;;22.67;;
73678;SDS011;61978;52.742;16.962;2022-09-09T04:04:53;22.22;;;16.62;;
73678;SDS011;61978;52.742;16.962;2022-09-09T04:10:20;22.42;;;17.27;;
73678;SDS011;61978;52.742;16.962;2022-09-09T04:13:12;21.17;;;17.02;;
73678;SDS011;61978;52.742;16.962;2022-09-09T04:18:53;21.50;;;17.20;;
73678;SDS011;61978;52.742;16.962;2022-09-09T04:21:26;24.45;;;18.95;;
73678;SDS011;61978;52.742;16.962;2022-09-09T04:24:15;23.20;;;18.45;;
73678;SDS011;61978;52.742;16.962;2022-09-09T04:44:45;18.57;;;16.17;;
73678;SDS011;61978;52.742;16.962;2022-09-09T05:18:19;22.42;;;16.65;;
73678;SDS011;61978;52.742;16.962;2022-09-09T05:20:23;20.43;;;16.10;;
73678;SDS011;61978;52.742;16.962;2022-09-09T05:32:22;17.70;;;15.70;;
73678;SDS011;61978;52.742;16.962;2022-09-09T05:34:56;19.23;;;14.28;;
73678;SDS011;61978;52.742;16.962;2022-09-09T05:37:30;18.80;;;14.60;;
73678;SDS011;61978;52.742;16.962;2022-09-09T05:49:13;17.57;;;14.50;;
73678;SDS011;61978;52.742;16.962;2022-09-09T06:03:51;17.50;;;14.55;;
73678;SDS011;61978;52.742;16.962;2022-09-09T06:09:15;16.90;;;14.07;;
73678;SDS011;61978;52.742;16.962;2022-09-09T06:26:21;14.87;;;13.30;;
73678;SDS011;61978;52.742;16.962;2022-09-09T06:29:06;14.30;;;12.75;;
73678;SDS011;61978;52.742;16.962;2022-09-09T06:40:21;13.93;;;12.43;;
73678;SDS011;61978;52.742;16.962;2022-09-09T06:42:52;15.70;;;14.00;;
73678;SDS011;61978;52.742;16.962;2022-09-09T06:54:14;15.70;;;13.50;;
73678;SDS011;61978;52.742;16.962;2022-09-09T07:11:23;16.60;;;13.98;;
73678;SDS011;61978;52.742;16.962;2022-09-09T07:23:10;13.88;;;12.47;;
73678;SDS011;61978;52.742;16.962;2022-09-09T07:25:44;16.62;;;13.90;;
73678;SDS011;61978;52.742;16.962;2022-09-09T07:28:15;18.25;;;14.05;;
73678;SDS011;61978;52.742;16.962;2022-09-09T07:30:55;13.58;;;11.10;;
73678;SDS011;61978;52.742;16.962;2022-09-09T07:33:34;12.18;;;10.85;;
73678;SDS011;61978;52.742;16.962;2022-09-09T07:36:10;12.18;;;10.95;;
73678;SDS011;61978;52.742;16.962;2022-09-09T07:38:51;12.20;;;11.00;;
73678;SDS011;61978;52.742;16.962;2022-09-09T07:47:07;15.72;;;12.23;;
73678;SDS011;61978;52.742;16.962;2022-09-09T07:58:50;11.30;;;10.10;;
73678;SDS011;61978;52.742;16.962;2022-09-09T08:07:56;11.65;;;10.50;;
73678;SDS011;61978;52.742;16.962;2022-09-09T08:16:46;16.50;;;14.73;;
73678;SDS011;61978;52.742;16.962;2022-09-09T08:22:22;19.45;;;14.43;;
73678;SDS011;61978;52.742;16.962;2022-09-09T08:34:33;15.25;;;12.25;;
73678;SDS011;61978;52.742;16.962;2022-09-09T08:38:15;14.38;;;12.88;;
73678;SDS011;61978;52.742;16.962;2022-09-09T08:40:22;14.73;;;13.22;;
73678;SDS011;61978;52.742;16.962;2022-09-09T08:59:54;13.78;;;9.78;;
73678;SDS011;61978;52.742;16.962;2022-09-09T09:02:24;12.07;;;9.98;;
73678;SDS011;61978;52.742;16.962;2022-09-09T09:50:21;8.78;;;7.97;;
73678;SDS011;61978;52.742;16.962;2022-09-09T09:56:16;10.85;;;5.92;;
73678;SDS011;61978;52.742;16.962;2022-09-09T10:25:11;5.17;;;4.65;;
73678;SDS011;61978;52.742;16.962;2022-09-09T10:42:21;6.62;;;5.53;;
73678;SDS011;61978;52.742;16.962;2022-09-09T11:40:39;10.28;;;5.90;;
73678;SDS011;61978;52.742;16.962;2022-09-09T11:58:01;5.35;;;3.70;;
73678;SDS011;61978;52.742;16.962;2022-09-09T12:05:56;6.00;;;4.65;;
73678;SDS011;61978;52.742;16.962;2022-09-09T12:08:27;6.28;;;4.28;;
73678;SDS011;61978;52.742;16.962;2022-09-09T12:10:55;6.85;;;3.52;;
73678;SDS011;61978;52.742;16.962;2022-09-09T12:13:25;8.85;;;4.05;;
73678;SDS011;61978;52.742;16.962;2022-09-09T12:15:55;5.15;;;3.80;;
73678;SDS011;61978;52.742;16.962;2022-09-09T12:18:35;5.28;;;3.42;;
73678;SDS011;61978;52.742;16.962;2022-09-09T12:21:48;4.53;;;3.40;;
73678;SDS011;61978;52.742;16.962;2022-09-09T12:23:50;4.00;;;3.40;;
73678;SDS011;61978;52.742;16.962;2022-09-09T12:26:41;6.03;;;3.17;;
73678;SDS011;61978;52.742;16.962;2022-09-09T12:29:36;6.20;;;4.83;;
73678;SDS011;61978;52.742;16.962;2022-09-09T12:37:38;4.65;;;3.37;;
73678;SDS011;61978;52.742;16.962;2022-09-09T12:40:19;3.43;;;2.93;;
73678;SDS011;61978;52.742;16.962;2022-09-09T12:42:48;3.52;;;1.57;;
73678;SDS011;61978;52.742;16.962;2022-09-09T12:45:26;1.85;;;0.82;;
73678;SDS011;61978;52.742;16.962;2022-09-09T12:47:56;1.12;;;0.78;;
73678;SDS011;61978;52.742;16.962;2022-09-09T12:50:29;2.40;;;0.62;;
73678;SDS011;61978;52.742;16.962;2022-09-09T12:52:59;3.02;;;0.98;;
73678;SDS011;61978;52.742;16.962;2022-09-09T12:55:29;4.90;;;0.80;;
73678;SDS011;61978;52.742;16.962;2022-09-09T12:57:59;3.33;;;0.60;;
73678;SDS011;61978;52.742;16.962;2022-09-09T13:00:32;3.10;;;0.65;;
73678;SDS011;61978;52.742;16.962;2022-09-09T13:03:01;2.10;;;0.70;;
73678;SDS011;61978;52.742;16.962;2022-09-09T13:05:42;2.70;;;0.62;;
73678;SDS011;61978;52.742;16.962;2022-09-09T13:08:10;0.90;;;0.50;;
73678;SDS011;61978;52.742;16.962;2022-09-09T13:10:41;2.60;;;0.90;;
73678;SDS011;61978;52.742;16.962;2022-09-09T13:13:21;2.27;;;0.57;;
73678;SDS011;61978;52.742;16.962;2022-09-09T13:15:56;3.02;;;0.90;;
73678;SDS011;61978;52.742;16.962;2022-09-09T13:18:27;5.20;;;0.62;;
73678;SDS011;61978;52.742;16.962;2022-09-09T13:21:00;3.55;;;0.45;;
73678;SDS011;61978;52.742;16.962;2022-09-09T13:23:32;1.07;;;0.40;;
73678;SDS011;61978;52.742;16.962;2022-09-09T13:26:00;2.30;;;0.78;;
73678;SDS011;61978;52.742;16.962;2022-09-09T13:28:30;1.30;;;0.47;;
73678;SDS011;61978;52.742;16.962;2022-09-09T13:36:04;2.40;;;0.60;;
73678;SDS011;61978;52.742;16.962;2022-09-09T13:38:36;1.45;;;0.70;;
73678;SDS011;61978;52.742;16.962;2022-09-09T13:41:07;1.90;;;0.40;;
73678;SDS011;61978;52.742;16.962;2022-09-09T13:43:41;1.45;;;0.88;;
73678;SDS011;61978;52.742;16.962;2022-09-09T13:46:21;2.08;;;0.65;;
73678;SDS011;61978;52.742;16.962;2022-09-09T13:48:56;1.22;;;0.50;;
73678;SDS011;61978;52.742;16.962;2022-09-09T13:51:33;1.80;;;0.80;;
73678;SDS011;61978;52.742;16.962;2022-09-09T13:54:00;3.85;;;0.90;;
73678;SDS011;61978;52.742;16.962;2022-09-09T13:56:27;2.75;;;0.80;;
73678;SDS011;61978;52.742;16.962;2022-09-09T13:58:54;1.40;;;0.75;;
73678;SDS011;61978;52.742;16.962;2022-09-09T14:01:20;3.67;;;0.90;;
73678;SDS011;61978;52.742;16.962;2022-09-09T14:03:47;1.87;;;0.95;;
73678;SDS011;61978;52.742;16.962;2022-09-09T14:06:13;1.98;;;0.95;;
73678;SDS011;61978;52.742;16.962;2022-09-09T14:08:40;3.10;;;0.93;;
73678;SDS011;61978;52.742;16.962;2022-09-09T14:11:08;4.80;;;0.95;;
73678;SDS011;61978;52.742;16.962;2022-09-09T14:13:37;3.55;;;0.78;;
73678;SDS011;61978;52.742;16.962;2022-09-09T14:16:04;1.77;;;0.60;;
73678;SDS011;61978;52.742;16.962;2022-09-09T14:18:30;2.90;;;0.57;;
73678;SDS011;61978;52.742;16.962;2022-09-09T14:20:57;2.80;;;0.72;;
73678;SDS011;61978;52.742;16.962;2022-09-09T14:23:24;2.72;;;0.70;;
73678;SDS011;61978;52.742;16.962;2022-09-09T14:25:51;2.17;;;0.75;;
73678;SDS011;61978;52.742;16.962;2022-09-09T14:28:17;3.27;;;0.72;;
73678;SDS011;61978;52.742;16.962;2022-09-09T14:30:44;2.58;;;0.80;;
73678;SDS011;61978;52.742;16.962;2022-09-09T14:33:11;1.87;;;0.72;;
73678;SDS011;61978;52.742;16.962;2022-09-09T14:35:38;3.75;;;0.95;;
73678;SDS011;61978;52.742;16.962;2022-09-09T14:38:07;3.10;;;0.93;;
73678;SDS011;61978;52.742;16.962;2022-09-09T14:40:35;3.95;;;1.27;;
73678;SDS011;61978;52.742;16.962;2022-09-09T14:43:04;3.10;;;1.00;;
73678;SDS011;61978;52.742;16.962;2022-09-09T14:45:31;2.58;;;0.80;;
73678;SDS011;61978;52.742;16.962;2022-09-09T14:47:57;2.85;;;0.75;;
73678;SDS011;61978;52.742;16.962;2022-09-09T14:50:25;2.05;;;0.82;;
73678;SDS011;61978;52.742;16.962;2022-09-09T14:52:51;4.15;;;0.78;;
73678;SDS011;61978;52.742;16.962;2022-09-09T14:55:18;1.00;;;0.80;;
73678;SDS011;61978;52.742;16.962;2022-09-09T14:57:45;4.30;;;0.53;;
73678;SDS011;61978;52.742;16.962;2022-09-09T15:00:11;2.33;;;0.80;;
73678;SDS011;61978;52.742;16.962;2022-09-09T15:02:39;1.95;;;0.65;;
73678;SDS011;61978;52.742;16.962;2022-09-09T15:05:06;2.25;;;1.00;;
73678;SDS011;61978;52.742;16.962;2022-09-09T15:07:33;4.42;;;0.75;;
73678;SDS011;61978;52.742;16.962;2022-09-09T15:10:00;3.40;;;1.25;;
73678;SDS011;61978;52.742;16.962;2022-09-09T15:12:26;5.30;;;0.90;;
73678;SDS011;61978;52.742;16.962;2022-09-09T15:14:54;4.30;;;0.85;;
73678;SDS011;61978;52.742;16.962;2022-09-09T15:17:20;3.17;;;0.80;;
73678;SDS011;61978;52.742;16.962;2022-09-09T15:19:46;10.20;;;1.12;;
73678;SDS011;61978;52.742;16.962;2022-09-09T15:22:15;4.35;;;0.90;;
73678;SDS011;61978;52.742;16.962;2022-09-09T15:24:42;1.62;;;0.88;;
73678;SDS011;61978;52.742;16.962;2022-09-09T15:27:12;1.87;;;0.75;;
73678;SDS011;61978;52.742;16.962;2022-09-09T15:29:40;2.98;;;0.90;;
73678;SDS011;61978;52.742;16.962;2022-09-09T15:32:09;3.85;;;0.70;;
73678;SDS011;61978;52.742;16.962;2022-09-09T15:34:35;2.45;;;0.80;;
73678;SDS011;61978;52.742;16.962;2022-09-09T15:37:01;2.72;;;0.82;;
73678;SDS011;61978;52.742;16.962;2022-09-09T15:39:30;2.33;;;1.02;;
73678;SDS011;61978;52.742;16.962;2022-09-09T15:41:56;0.90;;;0.40;;
73678;SDS011;61978;52.742;16.962;2022-09-09T15:44:23;4.70;;;1.20;;
73678;SDS011;61978;52.742;16.962;2022-09-09T15:46:52;4.60;;;1.00;;
73678;SDS011;61978;52.742;16.962;2022-09-09T15:49:22;3.62;;;0.85;;
73678;SDS011;61978;52.742;16.962;2022-09-09T15:51:55;2.95;;;0.72;;
73678;SDS011;61978;52.742;16.962;2022-09-09T15:54:25;3.43;;;1.00;;
73678;SDS011;61978;52.742;16.962;2022-09-09T15:56:59;3.47;;;1.10;;
73678;SDS011;61978;52.742;16.962;2022-09-09T15:59:23;2.05;;;0.78;;
73678;SDS011;61978;52.742;16.962;2022-09-09T16:01:51;5.30;;;1.20;;
73678;SDS011;61978;52.742;16.962;2022-09-09T16:04:18;2.47;;;0.82;;
73678;SDS011;61978;52.742;16.962;2022-09-09T16:06:56;3.67;;;0.70;;
73678;SDS011;61978;52.742;16.962;2022-09-09T16:09:20;2.70;;;0.88;;
73678;SDS011;61978;52.742;16.962;2022-09-09T16:11:47;1.75;;;0.70;;
73678;SDS011;61978;52.742;16.962;2022-09-09T16:14:14;4.45;;;0.90;;
73678;SDS011;61978;52.742;16.962;2022-09-09T16:16:41;4.35;;;1.02;;
73678;SDS011;61978;52.742;16.962;2022-09-09T16:19:09;3.17;;;1.02;;
73678;SDS011;61978;52.742;16.962;2022-09-09T16:21:48;4.92;;;0.88;;
73678;SDS011;61978;52.742;16.962;2022-09-09T16:24:16;4.03;;;0.95;;
73678;SDS011;61978;52.742;16.962;2022-09-09T16:26:46;2.70;;;1.20;;
73678;SDS011;61978;52.742;16.962;2022-09-09T16:29:15;2.50;;;0.72;;
73678;SDS011;61978;52.742;16.962;2022-09-09T16:31:43;4.75;;;0.95;;
73678;SDS011;61978;52.742;16.962;2022-09-09T16:34:10;4.85;;;0.90;;
73678;SDS011;61978;52.742;16.962;2022-09-09T16:36:38;8.13;;;1.25;;
73678;SDS011;61978;52.742;16.962;2022-09-09T16:39:10;3.47;;;1.20;;
73678;SDS011;61978;52.742;16.962;2022-09-09T16:41:38;5.95;;;1.00;;
73678;SDS011;61978;52.742;16.962;2022-09-09T16:44:07;6.12;;;1.12;;
73678;SDS011;61978;52.742;16.962;2022-09-09T16:46:35;7.50;;;1.10;;
73678;SDS011;61978;52.742;16.962;2022-09-09T16:49:05;3.85;;;1.10;;
73678;SDS011;61978;52.742;16.962;2022-09-09T16:51:37;2.27;;;0.90;;
73678;SDS011;61978;52.742;16.962;2022-09-09T16:54:08;6.28;;;1.17;;
73678;SDS011;61978;52.742;16.962;2022-09-09T16:56:37;3.80;;;1.00;;
73678;SDS011;61978;52.742;16.962;2022-09-09T16:59:08;8.35;;;1.20;;
73678;SDS011;61978;52.742;16.962;2022-09-09T17:01:37;5.05;;;0.85;;
73678;SDS011;61978;52.742;16.962;2022-09-09T17:04:07;7.78;;;1.30;;
73678;SDS011;61978;52.742;16.962;2022-09-09T17:06:36;4.67;;;1.20;;
73678;SDS011;61978;52.742;16.962;2022-09-09T17:09:05;5.87;;;1.00;;
73678;SDS011;61978;52.742;16.962;2022-09-09T17:11:34;6.85;;;1.47;;
73678;SDS011;61978;52.742;16.962;2022-09-09T17:14:02;6.33;;;0.90;;
73678;SDS011;61978;52.742;16.962;2022-09-09T17:16:30;2.50;;;1.10;;
73678;SDS011;61978;52.742;16.962;2022-09-09T17:18:57;4.72;;;1.22;;
73678;SDS011;61978;52.742;16.962;2022-09-09T17:21:27;3.52;;;1.42;;
73678;SDS011;61978;52.742;16.962;2022-09-09T17:23:58;6.58;;;1.52;;
73678;SDS011;61978;52.742;16.962;2022-09-09T17:26:29;3.42;;;1.70;;
73678;SDS011;61978;52.742;16.962;2022-09-09T17:29:01;4.03;;;1.42;;
73678;SDS011;61978;52.742;16.962;2022-09-09T17:31:35;4.50;;;1.67;;
73678;SDS011;61978;52.742;16.962;2022-09-09T17:34:01;3.58;;;1.82;;
73678;SDS011;61978;52.742;16.962;2022-09-09T17:36:30;7.87;;;2.52;;
73678;SDS011;61978;52.742;16.962;2022-09-09T17:38:58;5.62;;;1.35;;
73678;SDS011;61978;52.742;16.962;2022-09-09T17:41:27;2.37;;;1.40;;
73678;SDS011;61978;52.742;16.962;2022-09-09T17:43:55;7.40;;;1.70;;
73678;SDS011;61978;52.742;16.962;2022-09-09T17:46:23;7.17;;;1.80;;
73678;SDS011;61978;52.742;16.962;2022-09-09T17:48:54;8.15;;;2.00;;
73678;SDS011;61978;52.742;16.962;2022-09-09T17:51:25;9.95;;;1.77;;
73678;SDS011;61978;52.742;16.962;2022-09-09T17:53:59;5.95;;;2.02;;
73678;SDS011;61978;52.742;16.962;2022-09-09T17:56:29;6.75;;;2.12;;
73678;SDS011;61978;52.742;16.962;2022-09-09T17:58:57;2.10;;;1.15;;
73678;SDS011;61978;52.742;16.962;2022-09-09T18:01:26;5.97;;;1.40;;
73678;SDS011;61978;52.742;16.962;2022-09-09T18:03:56;7.35;;;1.32;;
73678;SDS011;61978;52.742;16.962;2022-09-09T18:06:27;3.42;;;0.80;;
73678;SDS011;61978;52.742;16.962;2022-09-09T18:08:58;1.80;;;0.80;;
73678;SDS011;61978;52.742;16.962;2022-09-09T18:11:28;4.53;;;1.00;;
73678;SDS011;61978;52.742;16.962;2022-09-09T18:13:57;1.37;;;0.98;;
73678;SDS011;61978;52.742;16.962;2022-09-09T18:16:27;2.12;;;1.20;;
73678;SDS011;61978;52.742;16.962;2022-09-09T18:18:55;18.57;;;4.62;;
73678;SDS011;61978;52.742;16.962;2022-09-09T18:21:24;40.45;;;22.05;;
73678;SDS011;61978;52.742;16.962;2022-09-09T18:23:52;14.43;;;7.58;;
73678;SDS011;61978;52.742;16.962;2022-09-09T18:26:22;14.93;;;6.28;;
73678;SDS011;61978;52.742;16.962;2022-09-09T18:28:52;12.68;;;5.90;;
73678;SDS011;61978;52.742;16.962;2022-09-09T18:31:22;11.03;;;4.55;;
73678;SDS011;61978;52.742;16.962;2022-09-09T18:33:50;6.65;;;2.65;;
73678;SDS011;61978;52.742;16.962;2022-09-09T18:36:22;6.95;;;2.02;;
73678;SDS011;61978;52.742;16.962;2022-09-09T18:38:55;5.58;;;3.22;;
73678;SDS011;61978;52.742;16.962;2022-09-09T18:41:23;6.75;;;3.55;;
73678;SDS011;61978;52.742;16.962;2022-09-09T18:43:53;14.93;;;8.80;;
73678;SDS011;61978;52.742;16.962;2022-09-09T18:46:22;18.73;;;9.13;;
73678;SDS011;61978;52.742;16.962;2022-09-09T18:48:53;9.98;;;4.67;;
73678;SDS011;61978;52.742;16.962;2022-09-09T18:51:21;7.60;;;4.60;;
73678;SDS011;61978;52.742;16.962;2022-09-09T18:53:55;8.40;;;4.72;;
73678;SDS011;61978;52.742;16.962;2022-09-09T18:56:20;18.55;;;10.13;;
73678;SDS011;61978;52.742;16.962;2022-09-09T18:58:54;27.67;;;16.02;;
73678;SDS011;61978;52.742;16.962;2022-09-09T19:01:23;36.70;;;25.30;;
73678;SDS011;61978;52.742;16.962;2022-09-09T19:03:50;38.90;;;20.30;;
73678;SDS011;61978;52.742;16.962;2022-09-09T19:06:22;16.85;;;10.63;;
73678;SDS011;61978;52.742;16.962;2022-09-09T19:08:50;12.47;;;7.22;;
73678;SDS011;61978;52.742;16.962;2022-09-09T19:11:18;13.45;;;6.50;;
73678;SDS011;61978;52.742;16.962;2022-09-09T19:13:57;10.90;;;7.15;;
73678;SDS011;61978;52.742;16.962;2022-09-09T19:16:26;66.35;;;25.48;;
73678;SDS011;61978;52.742;16.962;2022-09-09T19:18:57;36.75;;;17.92;;
73678;SDS011;61978;52.742;16.962;2022-09-09T19:21:30;12.40;;;8.10;;
73678;SDS011;61978;52.742;16.962;2022-09-09T19:24:03;19.27;;;10.32;;
73678;SDS011;61978;52.742;16.962;2022-09-09T19:26:29;17.95;;;8.30;;
73678;SDS011;61978;52.742;16.962;2022-09-09T19:28:59;37.98;;;18.95;;
73678;SDS011;61978;52.742;16.962;2022-09-09T19:31:27;30.02;;;15.45;;
73678;SDS011;61978;52.742;16.962;2022-09-09T19:33:58;49.58;;;22.15;;
73678;SDS011;61978;52.742;16.962;2022-09-09T19:36:24;51.28;;;25.65;;
73678;SDS011;61978;52.742;16.962;2022-09-09T19:38:54;46.95;;;23.47;;
73678;SDS011;61978;52.742;16.962;2022-09-09T19:41:22;27.55;;;16.37;;
73678;SDS011;61978;52.742;16.962;2022-09-09T19:43:50;19.25;;;13.65;;
73678;SDS011;61978;52.742;16.962;2022-09-09T19:46:19;16.70;;;12.23;;
73678;SDS011;61978;52.742;16.962;2022-09-09T19:48:47;16.70;;;12.85;;
73678;SDS011;61978;52.742;16.962;2022-09-09T19:51:15;21.97;;;13.72;;
73678;SDS011;61978;52.742;16.962;2022-09-09T19:53:45;25.43;;;18.62;;
73678;SDS011;61978;52.742;16.962;2022-09-09T19:56:15;16.82;;;12.78;;
73678;SDS011;61978;52.742;16.962;2022-09-09T19:58:47;19.25;;;13.55;;
73678;SDS011;61978;52.742;16.962;2022-09-09T20:01:15;18.05;;;13.30;;
73678;SDS011;61978;52.742;16.962;2022-09-09T20:03:47;18.37;;;11.80;;
73678;SDS011;61978;52.742;16.962;2022-09-09T20:06:16;12.55;;;10.28;;
73678;SDS011;61978;52.742;16.962;2022-09-09T20:08:45;14.10;;;10.68;;
73678;SDS011;61978;52.742;16.962;2022-09-09T20:11:14;16.50;;;10.68;;
73678;SDS011;61978;52.742;16.962;2022-09-09T20:13:42;18.80;;;11.97;;
73678;SDS011;61978;52.742;16.962;2022-09-09T20:16:10;17.48;;;11.73;;
73678;SDS011;61978;52.742;16.962;2022-09-09T20:18:44;14.90;;;11.73;;
73678;SDS011;61978;52.742;16.962;2022-09-09T20:23:47;15.23;;;10.95;;
73678;SDS011;61978;52.742;16.962;2022-09-09T20:26:17;18.62;;;11.90;;
73678;SDS011;61978;52.742;16.962;2022-09-09T20:28:46;19.25;;;13.03;;
73678;SDS011;61978;52.742;16.962;2022-09-09T20:31:16;18.85;;;13.53;;
73678;SDS011;61978;52.742;16.962;2022-09-09T20:33:46;17.57;;;13.93;;
73678;SDS011;61978;52.742;16.962;2022-09-09T20:36:31;19.23;;;15.30;;
73678;SDS011;61978;52.742;16.962;2022-09-09T20:38:49;23.22;;;15.85;;
73678;SDS011;61978;52.742;16.962;2022-09-09T20:41:18;20.32;;;15.13;;
73678;SDS011;61978;52.742;16.962;2022-09-09T20:43:48;21.37;;;15.35;;
73678;SDS011;61978;52.742;16.962;2022-09-09T20:46:20;22.13;;;15.80;;
73678;SDS011;61978;52.742;16.962;2022-09-09T20:48:55;23.12;;;16.67;;
73678;SDS011;61978;52.742;16.962;2022-09-09T20:51:21;27.02;;;17.75;;
73678;SDS011;61978;52.742;16.962;2022-09-09T20:53:59;22.75;;;17.32;;
73678;SDS011;61978;52.742;16.962;2022-09-09T20:56:34;26.57;;;18.30;;
73678;SDS011;61978;52.742;16.962;2022-09-09T20:59:03;24.57;;;17.45;;
73678;SDS011;61978;52.742;16.962;2022-09-09T21:01:38;31.30;;;18.12;;
73678;SDS011;61978;52.742;16.962;2022-09-09T21:04:06;25.20;;;17.52;;
73678;SDS011;61978;52.742;16.962;2022-09-09T21:06:35;26.07;;;18.07;;
73678;SDS011;61978;52.742;16.962;2022-09-09T21:09:01;27.70;;;18.57;;
73678;SDS011;61978;52.742;16.962;2022-09-09T21:11:29;25.62;;;17.02;;
73678;SDS011;61978;52.742;16.962;2022-09-09T21:13:59;25.92;;;17.98;;
73678;SDS011;61978;52.742;16.962;2022-09-09T21:16:26;25.43;;;19.62;;
73678;SDS011;61978;52.742;16.962;2022-09-09T21:18:52;25.32;;;18.05;;
73678;SDS011;61978;52.742;16.962;2022-09-09T21:21:20;26.57;;;18.67;;
73678;SDS011;61978;52.742;16.962;2022-09-09T21:23:47;28.38;;;19.48;;
73678;SDS011;61978;52.742;16.962;2022-09-09T21:26:13;27.40;;;20.05;;
73678;SDS011;61978;52.742;16.962;2022-09-09T21:28:40;27.35;;;19.42;;
73678;SDS011;61978;52.742;16.962;2022-09-09T21:31:06;29.10;;;19.98;;
73678;SDS011;61978;52.742;16.962;2022-09-09T21:33:37;30.27;;;22.37;;
73678;SDS011;61978;52.742;16.962;2022-09-09T21:36:04;33.05;;;24.15;;
73678;SDS011;61978;52.742;16.962;2022-09-09T21:38:31;39.63;;;23.35;;
73678;SDS011;61978;52.742;16.962;2022-09-09T21:41:02;36.05;;;25.00;;
73678;SDS011;61978;52.742;16.962;2022-09-09T21:43:30;39.67;;;25.55;;
73678;SDS011;61978;52.742;16.962;2022-09-09T21:45:57;42.10;;;26.82;;
73678;SDS011;61978;52.742;16.962;2022-09-09T21:48:23;40.65;;;26.37;;
73678;SDS011;61978;52.742;16.962;2022-09-09T21:50:50;46.33;;;27.13;;
73678;SDS011;61978;52.742;16.962;2022-09-09T21:53:18;41.90;;;25.60;;
73678;SDS011;61978;52.742;16.962;2022-09-09T21:55:46;39.03;;;24.82;;
73678;SDS011;61978;52.742;16.962;2022-09-09T21:58:14;42.73;;;25.40;;
73678;SDS011;61978;52.742;16.962;2022-09-09T22:00:41;36.13;;;23.15;;
73678;SDS011;61978;52.742;16.962;2022-09-09T22:03:10;36.73;;;23.40;;
73678;SDS011;61978;52.742;16.962;2022-09-09T22:05:39;37.85;;;23.55;;
73678;SDS011;61978;52.742;16.962;2022-09-09T22:08:07;38.05;;;24.10;;
73678;SDS011;61978;52.742;16.962;2022-09-09T22:10:35;35.25;;;24.00;;
73678;SDS011;61978;52.742;16.962;2022-09-09T22:13:02;36.08;;;23.55;;
73678;SDS011;61978;52.742;16.962;2022-09-09T22:15:30;33.55;;;24.18;;
73678;SDS011;61978;52.742;16.962;2022-09-09T22:17:59;32.45;;;22.93;;
73678;SDS011;61978;52.742;16.962;2022-09-09T22:20:30;33.13;;;22.62;;
73678;SDS011;61978;52.742;16.962;2022-09-09T22:22:59;36.58;;;22.42;;
73678;SDS011;61978;52.742;16.962;2022-09-09T22:25:26;31.82;;;22.25;;
73678;SDS011;61978;52.742;16.962;2022-09-09T22:27:54;37.08;;;23.73;;
73678;SDS011;61978;52.742;16.962;2022-09-09T22:30:21;33.58;;;22.52;;
73678;SDS011;61978;52.742;16.962;2022-09-09T22:32:47;27.07;;;19.05;;
73678;SDS011;61978;52.742;16.962;2022-09-09T22:35:15;28.42;;;18.50;;
73678;SDS011;61978;52.742;16.962;2022-09-09T22:37:42;29.27;;;19.67;;
73678;SDS011;61978;52.742;16.962;2022-09-09T22:40:09;24.05;;;17.40;;
73678;SDS011;61978;52.742;16.962;2022-09-09T22:42:36;24.20;;;17.23;;
73678;SDS011;61978;52.742;16.962;2022-09-09T22:45:03;24.27;;;17.20;;
73678;SDS011;61978;52.742;16.962;2022-09-09T22:47:30;24.25;;;18.35;;
73678;SDS011;61978;52.742;16.962;2022-09-09T22:49:56;24.63;;;17.52;;
73678;SDS011;61978;52.742;16.962;2022-09-09T22:52:23;24.40;;;17.98;;
73678;SDS011;61978;52.742;16.962;2022-09-09T22:54:49;21.35;;;15.40;;
73678;SDS011;61978;52.742;16.962;2022-09-09T22:57:16;25.80;;;17.37;;
73678;SDS011;61978;52.742;16.962;2022-09-09T22:59:42;25.40;;;16.30;;
73678;SDS011;61978;52.742;16.962;2022-09-09T23:02:09;27.35;;;20.70;;
73678;SDS011;61978;52.742;16.962;2022-09-09T23:04:37;29.77;;;20.85;;
73678;SDS011;61978;52.742;16.962;2022-09-09T23:07:04;34.35;;;22.93;;
73678;SDS011;61978;52.742;16.962;2022-09-09T23:09:32;33.23;;;24.72;;
73678;SDS011;61978;52.742;16.962;2022-09-09T23:11:59;36.55;;;24.67;;
73678;SDS011;61978;52.742;16.962;2022-09-09T23:14:26;27.87;;;21.97;;
73678;SDS011;61978;52.742;16.962;2022-09-09T23:16:52;29.32;;;23.50;;
73678;SDS011;61978;52.742;16.962;2022-09-09T23:19:20;31.12;;;22.22;;
73678;SDS011;61978;52.742;16.962;2022-09-09T23:21:46;28.23;;;19.57;;
73678;SDS011;61978;52.742;16.962;2022-09-09T23:24:13;22.77;;;18.32;;
73678;SDS011;61978;52.742;16.962;2022-09-09T23:26:41;27.05;;;19.77;;
73678;SDS011;61978;52.742;16.962;2022-09-09T23:29:10;23.50;;;16.65;;
73678;SDS011;61978;52.742;16.962;2022-09-09T23:31:40;25.05;;;16.95;;
73678;SDS011;61978;52.742;16.962;2022-09-09T23:34:09;25.95;;;16.02;;
73678;SDS011;61978;52.742;16.962;2022-09-09T23:36:37;23.40;;;17.95;;
73678;SDS011;61978;52.742;16.962;2022-09-09T23:39:06;23.45;;;18.05;;
73678;SDS011;61978;52.742;16.962;2022-09-09T23:41:32;23.90;;;18.67;;
73678;SDS011;61978;52.742;16.962;2022-09-09T23:44:01;26.10;;;19.90;;
73678;SDS011;61978;52.742;16.962;2022-09-09T23:46:29;23.60;;;18.30;;
73678;SDS011;61978;52.742;16.962;2022-09-09T23:48:56;28.27;;;20.15;;